createdAt,value
2018-11-05T00:00:31.610Z,91.90
2018-11-05T00:03:00.920Z,92.00
2018-11-05T00:05:30.172Z,92.00
2018-11-05T00:07:59.384Z,91.90
2018-11-05T00:10:28.608Z,92.00
2018-11-05T00:12:57.851Z,92.00
2018-11-05T00:15:27.176Z,92.00
2018-11-05T00:17:56.439Z,92.00
2018-11-05T00:20:25.632Z,92.00
2018-11-05T00:22:54.824Z,92.30
2018-11-05T00:25:24.116Z,92.00
2018-11-05T00:27:53.396Z,92.00
2018-11-05T00:30:22.696Z,92.00
2018-11-05T00:32:51.887Z,92.00
2018-11-05T00:35:21.106Z,92.10
2018-11-05T00:37:50.313Z,92.10
2018-11-05T00:40:19.547Z,92.10
2018-11-05T00:42:48.776Z,92.00
2018-11-05T00:45:18.091Z,92.10
2018-11-05T00:47:47.365Z,92.10
2018-11-05T00:50:17.136Z,92.10
2018-11-05T00:52:46.283Z,92.10
2018-11-05T00:55:16.504Z,92.10
2018-11-05T00:57:45.795Z,92.10
2018-11-05T01:00:16.517Z,92.10
2018-11-05T01:02:45.816Z,92.10
2018-11-05T01:05:33.272Z,92.10
2018-11-05T01:08:02.527Z,92.10
2018-11-05T01:10:31.859Z,92.10
2018-11-05T01:13:01.080Z,92.10
2018-11-05T01:15:30.748Z,92.10
2018-11-05T01:17:59.941Z,92.10
2018-11-05T01:20:29.211Z,92.10
2018-11-05T01:22:58.459Z,92.20
2018-11-05T01:25:27.640Z,92.20
2018-11-05T01:27:56.943Z,92.20
2018-11-05T01:30:26.248Z,92.20
2018-11-05T01:32:55.459Z,92.20
2018-11-05T01:35:24.707Z,92.20
2018-11-05T01:37:54.064Z,92.20
2018-11-05T01:40:23.236Z,92.20
2018-11-05T01:42:52.523Z,92.20
2018-11-05T01:45:21.787Z,92.20
2018-11-05T01:47:51.055Z,92.20
2018-11-05T01:50:20.233Z,92.20
2018-11-05T01:52:49.447Z,92.20
2018-11-05T01:55:18.707Z,92.20
2018-11-05T01:57:48.053Z,92.20
2018-11-05T02:00:18.027Z,92.20
2018-11-05T02:02:47.831Z,92.30
2018-11-05T02:05:17.103Z,92.30
2018-11-05T02:07:46.835Z,92.30
2018-11-05T02:10:17.235Z,92.20
2018-11-05T02:12:46.437Z,92.20
2018-11-05T02:15:15.688Z,92.20
2018-11-05T02:17:46.051Z,92.30
2018-11-05T02:20:16.388Z,92.30
2018-11-05T02:22:46.581Z,92.20
2018-11-05T02:25:15.892Z,92.30
2018-11-05T02:27:45.139Z,92.20
2018-11-05T02:30:17.143Z,92.30
2018-11-05T02:32:46.837Z,92.20
2018-11-05T02:35:17.092Z,92.20
2018-11-05T02:37:47.049Z,92.30
2018-11-05T02:40:18.455Z,92.20
2018-11-05T02:42:47.992Z,92.20
2018-11-05T02:45:18.347Z,92.30
2018-11-05T02:47:47.540Z,92.30
2018-11-05T02:50:17.225Z,92.30
2018-11-05T02:52:47.075Z,92.20
2018-11-05T02:55:16.362Z,92.30
2018-11-05T02:57:45.613Z,92.30
2018-11-05T03:00:18.172Z,92.30
2018-11-05T03:02:47.483Z,92.30
2018-11-05T03:05:17.940Z,92.30
2018-11-05T03:07:47.993Z,92.30
2018-11-05T03:10:17.619Z,92.30
2018-11-05T03:12:47.825Z,92.30
2018-11-05T03:15:18.209Z,92.30
2018-11-05T03:17:47.486Z,92.30
2018-11-05T03:20:17.115Z,92.30
2018-11-05T03:22:46.637Z,92.30
2018-11-05T03:25:15.909Z,92.40
2018-11-05T03:27:45.175Z,92.40
2018-11-05T03:30:16.419Z,92.40
2018-11-05T03:32:45.707Z,92.40
2018-11-05T03:35:15.336Z,92.40
2018-11-05T03:37:45.648Z,92.40
2018-11-05T03:40:15.102Z,92.40
2018-11-05T03:42:44.689Z,92.50
2018-11-05T03:45:15.170Z,92.50
2018-11-05T03:47:44.872Z,92.50
2018-11-05T03:50:15.597Z,92.40
2018-11-05T03:52:45.747Z,92.50
2018-11-05T03:55:15.877Z,92.50
2018-11-05T03:57:45.180Z,92.50
2018-11-05T04:00:16.411Z,92.50
2018-11-05T04:02:45.661Z,92.50
2018-11-05T04:05:14.947Z,92.40
2018-11-05T04:07:44.195Z,92.50
2018-11-05T04:10:14.254Z,92.50
2018-11-05T04:12:43.425Z,92.50
2018-11-05T04:15:12.739Z,92.50
2018-11-05T04:17:41.961Z,92.50
2018-11-05T04:20:13.020Z,92.50
2018-11-05T04:22:43.220Z,92.50
2018-11-05T04:25:12.576Z,92.50
2018-11-05T04:27:41.893Z,92.60
2018-11-05T04:30:15.884Z,92.60
2018-11-05T04:32:45.083Z,92.60
2018-11-05T04:35:14.668Z,92.60
2018-11-05T04:37:44.037Z,92.60
2018-11-05T04:40:13.367Z,92.60
2018-11-05T04:42:42.649Z,92.70
2018-11-05T04:45:13.202Z,92.70
2018-11-05T04:47:43.160Z,92.70
2018-11-05T04:50:13.588Z,93.20
2018-11-05T04:52:43.612Z,93.20
2018-11-05T04:55:12.874Z,93.30
2018-11-05T04:57:42.169Z,93.30
2018-11-05T05:00:14.288Z,93.40
2018-11-05T05:02:43.779Z,93.40
2018-11-05T05:05:14.168Z,93.40
2018-11-05T05:07:43.557Z,93.50
2018-11-05T05:10:12.803Z,93.50
2018-11-05T05:12:43.008Z,93.60
2018-11-05T05:15:12.592Z,93.60
2018-11-05T05:17:42.805Z,93.60
2018-11-05T05:20:14.175Z,93.70
2018-11-05T05:22:43.689Z,93.70
2018-11-05T05:25:13.154Z,93.70
2018-11-05T05:27:42.415Z,93.70
2018-11-05T05:30:15.119Z,93.70
2018-11-05T05:32:45.059Z,93.70
2018-11-05T05:35:14.673Z,93.60
2018-11-05T05:37:43.828Z,93.60
2018-11-05T05:40:13.199Z,93.60
2018-11-05T05:42:42.473Z,93.60
2018-11-05T05:45:12.647Z,93.50
2018-11-05T05:47:42.501Z,93.40
2018-11-05T05:50:14.788Z,93.40
2018-11-05T05:52:45.178Z,93.40
2018-11-05T05:55:14.495Z,93.30
2018-11-05T05:57:44.152Z,93.30
2018-11-05T06:00:14.864Z,93.40
2018-11-05T06:02:44.236Z,93.40
2018-11-05T06:05:14.299Z,93.80
2018-11-05T06:07:43.919Z,93.30
2018-11-05T06:10:14.460Z,93.50
2018-11-05T06:12:43.783Z,93.50
2018-11-05T06:15:14.419Z,93.50
2018-11-05T06:17:43.738Z,93.80
2018-11-05T06:20:16.900Z,93.50
2018-11-05T06:22:46.913Z,93.50
2018-11-05T06:25:16.453Z,93.50
2018-11-05T06:27:45.684Z,93.50
2018-11-05T06:30:17.213Z,93.50
2018-11-05T06:32:47.214Z,93.50
2018-11-05T06:35:16.530Z,93.50
2018-11-05T06:37:45.931Z,93.50
2018-11-05T06:40:16.600Z,93.50
2018-11-05T06:42:46.200Z,93.50
2018-11-05T06:45:16.866Z,93.50
2018-11-05T06:47:46.650Z,93.50
2018-11-05T06:50:18.235Z,93.50
2018-11-05T06:52:47.553Z,93.50
2018-11-05T06:55:17.131Z,93.50
2018-11-05T06:57:46.373Z,93.50
2018-11-05T07:00:22.629Z,93.60
2018-11-05T07:02:51.802Z,93.50
2018-11-05T07:05:21.135Z,93.50
2018-11-05T07:07:50.371Z,93.50
2018-11-05T07:10:20.127Z,93.60
2018-11-05T07:12:49.487Z,93.60
2018-11-05T07:15:19.521Z,93.60
2018-11-05T07:17:49.559Z,93.60
2018-11-05T07:20:20.191Z,93.60
2018-11-05T07:22:50.244Z,93.70
2018-11-05T07:25:19.546Z,93.70
2018-11-05T07:27:50.031Z,93.70
2018-11-05T07:30:35.305Z,93.80
2018-11-05T07:33:04.696Z,93.80
2018-11-05T07:35:33.928Z,93.80
2018-11-05T07:38:03.638Z,93.90
2018-11-05T07:40:33.995Z,93.90
2018-11-05T07:43:03.359Z,93.90
2018-11-05T07:45:32.594Z,93.90
2018-11-05T07:48:02.526Z,94.00
2018-11-05T07:50:33.392Z,94.00
2018-11-05T07:53:02.722Z,94.30
2018-11-05T07:55:32.392Z,94.00
2018-11-05T07:58:01.668Z,94.00
2018-11-05T08:00:36.058Z,94.10
2018-11-05T08:03:05.332Z,94.20
2018-11-05T08:05:34.669Z,94.20
2018-11-05T08:08:03.870Z,94.20
2018-11-05T08:10:33.152Z,94.30
2018-11-05T08:13:02.371Z,94.30
2018-11-05T08:15:31.676Z,94.30
2018-11-05T08:18:01.052Z,94.30
2018-11-05T08:20:30.225Z,94.30
2018-11-05T08:22:59.441Z,94.30
2018-11-05T08:25:28.642Z,94.30
2018-11-05T08:27:57.841Z,94.40
2018-11-05T08:30:27.322Z,93.80
2018-11-05T08:32:56.928Z,93.80
2018-11-05T08:35:26.161Z,93.70
2018-11-05T08:37:55.471Z,93.60
2018-11-05T08:40:26.707Z,93.60
2018-11-05T08:42:56.933Z,93.50
2018-11-05T08:45:28.502Z,93.40
2018-11-05T08:47:57.806Z,93.30
2018-11-05T08:50:27.054Z,93.20
2018-11-05T08:52:56.263Z,93.30
2018-11-05T08:55:26.651Z,93.10
2018-11-05T08:57:55.884Z,93.00
2018-11-05T09:00:30.401Z,93.00
2018-11-05T09:02:59.766Z,92.90
2018-11-05T09:05:29.035Z,92.80
2018-11-05T09:07:58.273Z,92.60
2018-11-05T09:10:27.652Z,92.50
2018-11-05T09:12:56.893Z,92.50
2018-11-05T09:15:26.176Z,92.40
2018-11-05T09:17:55.452Z,92.40
2018-11-05T09:20:24.667Z,92.30
2018-11-05T09:22:54.078Z,92.20
2018-11-05T09:25:23.336Z,92.10
2018-11-05T09:27:52.662Z,92.00
2018-11-05T09:30:23.207Z,91.80
2018-11-05T09:32:52.560Z,91.70
2018-11-05T09:35:21.852Z,91.60
2018-11-05T09:37:51.175Z,91.40
2018-11-05T09:40:22.759Z,91.30
2018-11-05T09:42:52.304Z,91.20
2018-11-05T09:45:23.938Z,91.10
2018-11-05T09:47:53.216Z,91.00
2018-11-05T09:50:22.500Z,90.80
2018-11-05T09:52:51.727Z,90.70
2018-11-05T09:55:20.886Z,90.40
2018-11-05T09:57:50.097Z,90.50
2018-11-05T10:00:25.044Z,90.50
2018-11-05T10:03:01.893Z,90.40
2018-11-05T10:05:31.166Z,90.40
2018-11-05T10:08:00.487Z,90.30
2018-11-05T10:10:29.895Z,90.50
2018-11-05T10:12:59.069Z,90.00
2018-11-05T10:15:28.343Z,89.70
2018-11-05T10:17:57.666Z,89.60
2018-11-05T10:20:26.908Z,89.70
2018-11-05T10:22:56.207Z,89.70
2018-11-05T10:25:25.462Z,89.70
2018-11-05T10:27:58.784Z,89.80
2018-11-05T10:30:28.107Z,89.70
2018-11-05T10:32:57.514Z,89.60
2018-11-05T10:35:58.072Z,89.60
2018-11-05T10:38:27.705Z,89.60
2018-11-05T10:40:56.964Z,89.40
2018-11-05T10:43:26.550Z,89.30
2018-11-05T10:45:55.886Z,89.20
2018-11-05T10:48:25.295Z,89.10
2018-11-05T10:50:54.692Z,89.20
2018-11-05T10:53:24.645Z,89.00
2018-11-05T10:55:54.321Z,88.70
2018-11-05T10:58:23.599Z,88.70
2018-11-05T11:01:01.806Z,88.90
2018-11-05T11:03:34.192Z,89.10
2018-11-05T11:06:04.334Z,89.10
2018-11-05T11:08:33.547Z,89.00
2018-11-05T11:11:02.809Z,88.80
2018-11-05T11:13:32.141Z,88.70
2018-11-05T11:16:01.365Z,88.40
2018-11-05T11:18:30.627Z,88.00
2018-11-05T11:20:59.852Z,87.10
2018-11-05T11:23:29.180Z,86.70
2018-11-05T11:25:58.544Z,86.30
2018-11-05T11:28:30.006Z,85.70
2018-11-05T11:31:02.367Z,85.20
2018-11-05T11:33:31.594Z,84.50
2018-11-05T11:36:00.968Z,83.40
2018-11-05T11:38:32.248Z,82.30
2018-11-05T11:41:02.422Z,81.80
2018-11-05T11:43:31.784Z,81.30
2018-11-05T11:46:01.100Z,80.70
2018-11-05T11:48:30.358Z,80.00
2018-11-05T11:50:59.628Z,79.60
2018-11-05T11:53:29.187Z,78.80
2018-11-05T11:55:58.377Z,78.20
2018-11-05T11:58:27.749Z,77.10
2018-11-05T12:00:56.928Z,76.30
2018-11-05T12:03:26.904Z,75.10
2018-11-05T12:05:56.201Z,74.10
2018-11-05T12:08:25.514Z,73.10
2018-11-05T12:10:54.775Z,71.70
2018-11-05T12:13:24.004Z,71.60
2018-11-05T12:15:53.326Z,70.40
2018-11-05T12:18:22.708Z,68.80
2018-11-05T12:20:51.923Z,68.20
2018-11-05T12:23:21.235Z,67.40
2018-11-05T12:25:50.528Z,67.00
2018-11-05T12:28:19.960Z,66.60
2018-11-05T12:30:49.249Z,66.40
2018-11-05T12:33:18.487Z,65.70
2018-11-05T12:35:47.666Z,65.20
2018-11-05T12:38:16.881Z,64.40
2018-11-05T12:40:46.175Z,63.80
2018-11-05T12:43:15.452Z,63.30
2018-11-05T12:46:03.691Z,63.40
2018-11-05T12:48:32.916Z,63.00
2018-11-05T12:51:02.147Z,62.20
2018-11-05T12:53:31.412Z,61.50
2018-11-05T12:56:00.699Z,60.90
2018-11-05T12:58:30.019Z,60.70
2018-11-05T13:00:59.300Z,60.50
2018-11-05T13:03:28.611Z,61.00
2018-11-05T13:05:57.960Z,60.00
2018-11-05T13:08:27.190Z,59.70
2018-11-05T13:10:56.627Z,58.80
2018-11-05T13:13:25.928Z,59.40
2018-11-05T13:15:56.076Z,59.30
2018-11-05T13:18:25.304Z,59.70
2018-11-05T13:20:55.566Z,58.90
2018-11-05T13:23:30.724Z,58.70
2018-11-05T13:26:00.052Z,58.80
2018-11-05T13:28:29.366Z,58.90
2018-11-05T13:30:58.660Z,58.40
2018-11-05T13:33:28.350Z,58.20
2018-11-05T13:36:09.303Z,57.80
2018-11-05T13:38:39.373Z,57.60
2018-11-05T13:41:08.504Z,57.40
2018-11-05T13:43:37.712Z,57.10
2018-11-05T13:46:07.647Z,57.10
2018-11-05T13:48:37.381Z,57.00
2018-11-05T13:51:06.401Z,56.90
2018-11-05T13:53:35.679Z,56.90
2018-11-05T13:56:05.402Z,56.80
2018-11-05T13:58:34.732Z,56.70
2018-11-05T14:01:03.975Z,56.70
2018-11-05T14:03:33.143Z,56.50
2018-11-05T14:06:02.372Z,56.80
2018-11-05T14:08:31.671Z,56.70
2018-11-05T14:11:00.959Z,56.40
2018-11-05T14:13:30.504Z,56.50
2018-11-05T14:15:59.803Z,56.50
2018-11-05T14:18:29.146Z,56.70
2018-11-05T14:20:58.438Z,56.90
2018-11-05T14:23:27.768Z,57.00
2018-11-05T14:25:57.146Z,57.00
2018-11-05T14:28:26.635Z,57.10
2018-11-05T14:30:55.755Z,57.20
2018-11-05T14:33:24.976Z,57.50
2018-11-05T14:35:54.429Z,57.70
2018-11-05T14:38:23.796Z,57.80
2018-11-05T14:40:53.101Z,58.00
2018-11-05T14:43:22.482Z,58.30
2018-11-05T14:45:51.815Z,58.60
2018-11-05T14:48:21.099Z,59.00
2018-11-05T14:50:50.458Z,58.90
2018-11-05T14:53:19.675Z,59.00
2018-11-05T14:55:48.972Z,59.10
2018-11-05T14:58:18.267Z,59.50
2018-11-05T15:00:47.481Z,60.50
2018-11-05T15:03:16.703Z,59.80
2018-11-05T15:05:46.028Z,59.70
2018-11-05T15:08:34.764Z,59.80
2018-11-05T15:11:04.126Z,59.80
2018-11-05T15:13:33.344Z,59.80
2018-11-05T15:16:02.571Z,59.80
2018-11-05T15:18:32.043Z,59.90
2018-11-05T15:21:01.351Z,60.00
2018-11-05T15:23:30.636Z,60.30
2018-11-05T15:25:59.942Z,60.50
2018-11-05T15:28:29.339Z,60.90
2018-11-05T15:30:58.652Z,61.20
2018-11-05T15:33:27.997Z,61.50
2018-11-05T15:35:57.320Z,62.00
2018-11-05T15:38:26.628Z,61.90
2018-11-05T15:40:55.948Z,61.80
2018-11-05T15:43:25.224Z,62.70
2018-11-05T15:45:54.507Z,62.90
2018-11-05T15:48:23.795Z,64.10
2018-11-05T15:50:53.027Z,63.70
2018-11-05T15:53:24.048Z,64.10
2018-11-05T15:55:52.754Z,64.20
2018-11-05T15:58:22.023Z,64.50
2018-11-05T16:00:51.281Z,64.60
2018-11-05T16:03:20.527Z,64.90
2018-11-05T16:05:49.761Z,65.30
2018-11-05T16:08:19.009Z,65.60
2018-11-05T16:10:48.251Z,66.00
2018-11-05T16:13:17.518Z,66.40
2018-11-05T16:15:46.857Z,66.50
2018-11-05T16:18:16.220Z,66.80
2018-11-05T16:20:45.507Z,67.70
2018-11-05T16:23:14.827Z,67.10
2018-11-05T16:25:44.065Z,67.40
2018-11-05T16:28:13.423Z,67.80
2018-11-05T16:30:43.174Z,68.00
2018-11-05T16:33:12.467Z,68.30
2018-11-05T16:35:41.808Z,68.60
2018-11-05T16:38:11.055Z,69.20
2018-11-05T16:40:40.679Z,69.00
2018-11-05T16:43:09.930Z,69.40
2018-11-05T16:45:39.328Z,70.00
2018-11-05T16:48:08.794Z,70.60
2018-11-05T16:50:38.184Z,71.10
2018-11-05T16:53:07.421Z,71.70
2018-11-05T16:55:36.673Z,72.30
2018-11-05T16:58:06.899Z,72.70
2018-11-05T17:00:36.418Z,72.90
2018-11-05T17:03:06.857Z,73.10
2018-11-05T17:05:36.151Z,73.30
2018-11-05T17:08:05.822Z,73.40
2018-11-05T17:10:35.139Z,73.70
2018-11-05T17:13:04.683Z,73.90
2018-11-05T17:15:33.959Z,74.10
2018-11-05T17:18:03.267Z,74.10
2018-11-05T17:20:32.620Z,74.10
2018-11-05T17:23:01.833Z,74.40
2018-11-05T17:25:31.063Z,74.80
2018-11-05T17:28:01.180Z,75.00
2018-11-05T17:30:30.484Z,75.30
2018-11-05T17:32:59.765Z,75.50
2018-11-05T17:35:29.207Z,75.80
2018-11-05T17:38:12.602Z,76.10
2018-11-05T17:40:42.120Z,76.30
2018-11-05T17:43:12.025Z,76.60
2018-11-05T17:45:41.488Z,76.90
2018-11-05T17:48:11.079Z,77.40
2018-11-05T17:50:40.361Z,77.80
2018-11-05T17:53:09.652Z,77.90
2018-11-05T17:55:38.967Z,78.30
2018-11-05T18:01:08.142Z,78.70
2018-11-05T18:03:37.674Z,79.00
2018-11-05T18:06:06.907Z,79.20
2018-11-05T18:08:36.196Z,79.70
2018-11-05T18:11:05.715Z,80.10
2018-11-05T18:13:34.964Z,80.00
2018-11-05T18:16:04.210Z,80.10
2018-11-05T18:18:33.630Z,80.70
2018-11-05T18:21:02.860Z,81.00
2018-11-05T18:23:32.163Z,81.30
2018-11-05T18:26:01.415Z,81.50
2018-11-05T18:28:30.646Z,81.70
2018-11-05T18:31:01.323Z,81.80
2018-11-05T18:33:30.475Z,81.80
2018-11-05T18:35:59.763Z,82.00
2018-11-05T18:38:29.233Z,82.20
2018-11-05T18:40:58.611Z,82.40
2018-11-05T18:43:33.799Z,82.60
2018-11-05T18:46:03.099Z,82.80
2018-11-05T18:48:32.335Z,83.10
2018-11-05T18:51:01.644Z,83.30
2018-11-05T18:53:30.847Z,83.60
2018-11-05T18:56:00.215Z,83.70
2018-11-05T18:58:29.435Z,83.80
2018-11-05T19:00:58.699Z,83.80
2018-11-05T19:03:28.059Z,83.80
2018-11-05T19:05:57.228Z,83.90
2018-11-05T19:08:26.590Z,84.00
2018-11-05T19:10:55.884Z,84.10
2018-11-05T19:13:25.079Z,84.30
2018-11-05T19:15:54.341Z,84.40
2018-11-05T19:18:23.608Z,84.30
2018-11-05T19:20:59.338Z,84.50
2018-11-05T19:23:29.669Z,84.60
2018-11-05T19:25:59.544Z,84.80
2018-11-05T19:28:28.803Z,84.90
2018-11-05T19:30:59.526Z,85.00
2018-11-05T19:33:28.869Z,85.10
2018-11-05T19:35:58.280Z,85.10
2018-11-05T19:38:27.525Z,85.40
2018-11-05T19:40:56.687Z,85.60
2018-11-05T19:43:25.975Z,85.60
2018-11-05T19:45:55.324Z,85.90
2018-11-05T19:48:30.097Z,85.80
2018-11-05T19:50:59.313Z,85.80
2018-11-05T19:53:38.678Z,85.90
2018-11-05T19:56:08.651Z,86.10
2018-11-05T19:58:37.880Z,86.10
2018-11-05T20:01:07.094Z,86.40
2018-11-05T20:03:36.403Z,86.30
2018-11-05T20:06:07.201Z,86.60
2018-11-05T20:08:54.732Z,86.70
2018-11-05T20:11:24.368Z,87.60
2018-11-05T20:13:55.044Z,86.90
2018-11-05T20:16:24.374Z,87.10
2018-11-05T20:18:53.722Z,87.30
2018-11-05T20:21:22.946Z,88.50
2018-11-05T20:23:52.302Z,88.60
2018-11-05T20:26:21.635Z,88.80
2018-11-05T20:28:51.022Z,88.80
2018-11-05T20:31:21.429Z,88.90
2018-11-05T20:33:50.593Z,89.00
2018-11-05T20:36:19.739Z,89.30
2018-11-05T20:38:49.303Z,89.40
2018-11-05T20:41:18.835Z,89.50
2018-11-05T20:43:48.071Z,89.60
2018-11-05T20:46:17.525Z,89.50
2018-11-05T20:48:46.772Z,89.50
2018-11-05T20:51:32.403Z,89.50
2018-11-05T20:54:01.745Z,90.10
2018-11-05T20:56:41.457Z,89.70
2018-11-05T20:59:11.067Z,89.70
2018-11-05T21:01:40.272Z,90.10
2018-11-05T21:04:09.680Z,90.00
2018-11-05T21:06:38.851Z,90.10
2018-11-05T21:09:10.119Z,90.20
2018-11-05T21:11:39.455Z,90.30
2018-11-05T21:14:08.787Z,90.40
2018-11-05T21:16:38.141Z,90.40
2018-11-05T21:19:07.363Z,90.50
2018-11-05T21:21:36.635Z,90.50
2018-11-05T21:24:05.783Z,90.60
2018-11-05T21:26:35.149Z,90.60
2018-11-05T21:29:04.457Z,90.70
2018-11-05T21:31:33.744Z,90.20
2018-11-05T21:34:02.982Z,90.20
2018-11-05T21:36:32.314Z,90.30
2018-11-05T21:39:01.643Z,90.30
2018-11-05T21:41:30.928Z,90.30
2018-11-05T21:44:00.355Z,90.30
2018-11-05T21:49:25.153Z,90.40
2018-11-05T21:51:54.439Z,90.40
2018-11-05T21:54:23.806Z,90.70
2018-11-05T21:56:53.252Z,90.40
2018-11-05T21:59:22.623Z,90.30
2018-11-05T22:01:52.176Z,90.00
2018-11-05T22:04:21.576Z,90.30
2018-11-05T22:06:50.892Z,90.30
2018-11-05T22:09:20.142Z,90.80
2018-11-05T22:11:50.500Z,90.80
2018-11-05T22:14:19.843Z,90.80
2018-11-05T22:16:49.108Z,90.80
2018-11-05T22:19:18.288Z,90.80
2018-11-05T22:21:47.571Z,90.80
2018-11-05T22:24:16.881Z,90.90
2018-11-05T22:26:46.174Z,90.90
2018-11-05T22:29:15.422Z,90.90
2018-11-05T22:31:44.707Z,91.00
2018-11-05T22:34:14.140Z,91.10
2018-11-05T22:36:43.335Z,91.20
2018-11-05T22:39:12.827Z,91.20
2018-11-05T22:41:42.115Z,91.30
2018-11-05T22:44:11.427Z,91.40
2018-11-05T22:46:40.770Z,91.40
2018-11-05T22:49:10.020Z,91.40
2018-11-05T22:51:39.519Z,91.40
2018-11-05T22:54:08.878Z,91.40
2018-11-05T22:56:38.225Z,91.50
2018-11-05T22:59:07.531Z,91.50
2018-11-05T23:01:41.742Z,91.50
2018-11-05T23:04:11.899Z,91.50
2018-11-05T23:06:41.197Z,91.50
2018-11-05T23:09:10.483Z,91.60
2018-11-05T23:11:39.671Z,91.60
2018-11-05T23:14:08.914Z,91.60
2018-11-05T23:16:38.127Z,91.70
2018-11-05T23:19:07.717Z,91.70
2018-11-05T23:21:37.052Z,91.80
2018-11-05T23:24:06.562Z,91.80
2018-11-05T23:26:35.791Z,91.80
2018-11-05T23:29:05.437Z,91.90
2018-11-05T23:31:34.609Z,91.80
2018-11-05T23:34:03.920Z,91.90
2018-11-05T23:36:33.154Z,91.90
2018-11-05T23:39:02.405Z,91.90
2018-11-05T23:41:31.701Z,91.90
2018-11-05T23:44:00.959Z,91.90
2018-11-05T23:46:30.278Z,91.90
2018-11-05T23:48:59.600Z,92.00
2018-11-05T23:51:28.850Z,92.10
2018-11-05T23:53:58.173Z,92.10
2018-11-05T23:56:27.492Z,92.20
2018-11-05T23:58:56.663Z,92.30
